createdAt,value
2019-04-01T00:02:12.007Z,72.40
2019-04-01T00:04:44.249Z,72.50
2019-04-01T00:07:10.586Z,73.30
2019-04-01T00:09:45.975Z,73.60
2019-04-01T00:12:12.313Z,73.70
2019-04-01T00:14:38.647Z,73.50
2019-04-01T00:17:06.004Z,74.30
2019-04-01T00:19:32.287Z,74.90
2019-04-01T00:21:58.574Z,74.30
2019-04-01T00:24:24.823Z,73.90
2019-04-01T00:26:54.121Z,73.70
2019-04-01T00:29:23.566Z,74.20
2019-04-01T00:31:49.835Z,74.40
2019-04-01T00:34:16.189Z,74.50
2019-04-01T00:36:42.591Z,74.70
2019-04-01T00:39:08.914Z,74.30
2019-04-01T00:41:37.181Z,74.40
2019-04-01T00:44:05.439Z,74.50
2019-04-01T00:46:31.957Z,75.10
2019-04-01T00:48:58.288Z,75.10
2019-04-01T00:51:25.879Z,75.50
2019-04-01T00:53:52.525Z,75.50
2019-04-01T00:56:18.866Z,75.40
2019-04-01T00:58:48.220Z,75.90
2019-04-01T01:01:14.540Z,75.70
2019-04-01T01:03:40.965Z,75.90
2019-04-01T01:06:07.426Z,76.40
2019-04-01T01:08:33.850Z,75.90
2019-04-01T01:11:00.303Z,75.80
2019-04-01T01:13:26.769Z,76.00
2019-04-01T01:15:53.105Z,75.90
2019-04-01T01:18:19.560Z,75.70
2019-04-01T01:20:52.128Z,75.80
2019-04-01T01:23:18.503Z,76.60
2019-04-01T01:25:45.062Z,76.10
2019-04-01T01:28:13.158Z,75.80
2019-04-01T01:30:45.233Z,75.90
2019-04-01T01:33:12.023Z,75.60
2019-04-01T01:35:39.526Z,75.40
2019-04-01T01:38:05.920Z,75.80
2019-04-01T01:40:32.387Z,75.80
2019-04-01T01:42:58.895Z,76.00
2019-04-01T01:45:25.211Z,75.70
2019-04-01T01:47:51.508Z,76.00
2019-04-01T01:50:17.831Z,76.30
2019-04-01T01:52:44.130Z,76.10
2019-04-01T01:55:13.703Z,74.90
2019-04-01T01:57:40.246Z,75.30
2019-04-01T02:00:13.621Z,75.30
2019-04-01T02:02:40.029Z,76.00
2019-04-01T02:05:06.435Z,76.10
2019-04-01T02:07:32.775Z,76.30
2019-04-01T02:09:59.155Z,76.40
2019-04-01T02:12:25.591Z,76.70
2019-04-01T02:14:54.912Z,77.20
2019-04-01T02:17:21.230Z,76.60
2019-04-01T02:19:50.631Z,76.50
2019-04-01T02:22:16.899Z,76.60
2019-04-01T02:24:43.167Z,76.50
2019-04-01T02:27:09.445Z,76.80
2019-04-01T02:29:35.750Z,76.90
2019-04-01T02:32:02.050Z,76.50
2019-04-01T02:34:28.407Z,77.30
2019-04-01T02:37:00.498Z,76.80
2019-04-01T02:39:26.935Z,77.00
2019-04-01T02:41:53.364Z,77.00
2019-04-01T02:44:19.776Z,77.60
2019-04-01T02:46:46.159Z,77.30
2019-04-01T02:49:12.522Z,77.50
2019-04-01T02:51:38.867Z,77.30
2019-04-01T02:54:05.215Z,77.00
2019-04-01T02:56:31.639Z,77.30
2019-04-01T02:58:57.888Z,77.90
2019-04-01T03:01:26.229Z,78.00
2019-04-01T03:03:55.625Z,77.10
2019-04-01T03:06:21.919Z,77.90
2019-04-01T03:08:48.159Z,77.50
2019-04-01T03:11:14.520Z,78.00
2019-04-01T03:13:40.836Z,78.20
2019-04-01T03:16:07.184Z,77.70
2019-04-01T03:18:36.586Z,78.00
2019-04-01T03:21:05.894Z,78.30
2019-04-01T03:23:35.380Z,78.20
2019-04-01T03:26:01.694Z,78.60
2019-04-01T03:28:29.128Z,78.80
2019-04-01T03:30:55.541Z,79.00
2019-04-01T03:33:21.860Z,79.00
2019-04-01T03:35:48.166Z,79.10
2019-04-01T03:38:14.588Z,79.10
2019-04-01T03:40:40.920Z,78.90
2019-04-01T03:43:07.252Z,78.40
2019-04-01T03:45:33.788Z,78.90
2019-04-01T03:48:00.066Z,79.80
2019-04-01T03:50:26.500Z,79.60
2019-04-01T03:52:52.906Z,79.60
2019-04-01T03:55:19.555Z,79.90
2019-04-01T03:57:45.957Z,79.80
2019-04-01T04:00:12.421Z,79.90
2019-04-01T04:02:38.856Z,80.10
2019-04-01T04:05:05.410Z,80.50
2019-04-01T04:07:31.756Z,80.50
2019-04-01T04:09:58.149Z,80.80
2019-04-01T04:12:24.443Z,80.30
2019-04-01T04:14:51.527Z,80.30
2019-04-01T04:17:24.604Z,80.40
2019-04-01T04:19:50.934Z,81.00
2019-04-01T04:22:17.456Z,80.90
2019-04-01T04:24:45.492Z,81.10
2019-04-01T04:27:17.875Z,80.80
2019-04-01T04:29:44.165Z,81.10
2019-04-01T04:32:13.772Z,81.00
2019-04-01T04:34:40.160Z,80.90
2019-04-01T04:37:06.476Z,80.90
2019-04-01T04:39:32.823Z,81.00
2019-04-01T04:41:59.291Z,81.20
2019-04-01T04:44:25.720Z,81.50
2019-04-01T04:46:58.095Z,81.30
2019-04-01T04:49:24.559Z,81.10
2019-04-01T04:51:50.964Z,81.30
2019-04-01T04:54:17.270Z,82.00
2019-04-01T04:56:46.738Z,81.60
2019-04-01T04:59:13.029Z,81.20
2019-04-01T05:01:39.383Z,81.00
2019-04-01T05:04:09.758Z,80.80
2019-04-01T05:06:36.302Z,81.90
2019-04-01T05:09:08.568Z,81.40
2019-04-01T05:11:35.018Z,81.70
2019-04-01T05:14:01.314Z,81.90
2019-04-01T05:16:29.774Z,81.90
2019-04-01T05:18:56.299Z,82.20
2019-04-01T05:21:22.628Z,82.00
2019-04-01T05:23:50.050Z,82.10
2019-04-01T05:26:17.509Z,81.90
2019-04-01T05:28:43.856Z,81.90
2019-04-01T05:31:10.265Z,81.90
2019-04-01T05:33:36.530Z,82.10
2019-04-01T05:36:03.012Z,82.10
2019-04-01T05:38:29.301Z,82.00
2019-04-01T05:41:02.036Z,81.70
2019-04-01T05:43:34.340Z,81.20
2019-04-01T05:46:00.691Z,81.50
2019-04-01T05:48:31.352Z,80.80
2019-04-01T05:50:57.598Z,80.70
2019-04-01T05:53:26.986Z,81.20
2019-04-01T05:55:53.280Z,80.80
2019-04-01T05:58:19.601Z,80.90
2019-04-01T06:00:53.206Z,81.00
2019-04-01T06:03:19.477Z,80.80
2019-04-01T06:05:45.761Z,81.20
2019-04-01T06:08:12.047Z,80.60
2019-04-01T06:10:44.926Z,80.20
2019-04-01T06:13:17.507Z,79.40
2019-04-01T06:15:49.788Z,78.10
2019-04-01T06:18:16.035Z,76.00
2019-04-01T06:20:45.484Z,75.00
2019-04-01T06:23:11.742Z,74.00
2019-04-01T06:25:38.032Z,71.40
2019-04-01T06:28:04.330Z,70.30
2019-04-01T06:30:30.634Z,70.40
2019-04-01T06:32:56.993Z,72.20
2019-04-01T06:35:23.351Z,71.30
2019-04-01T06:37:49.614Z,71.80
2019-04-01T06:40:15.911Z,69.60
2019-04-01T06:42:42.270Z,68.20
2019-04-01T06:45:08.576Z,66.90
2019-04-01T06:47:35.291Z,65.60
2019-04-01T06:50:02.000Z,67.50
2019-04-01T06:52:28.353Z,68.10
2019-04-01T06:54:54.673Z,68.00
2019-04-01T06:57:21.017Z,66.80
2019-04-01T06:59:47.337Z,67.20
2019-04-01T07:02:33.501Z,64.30
2019-04-01T07:05:00.370Z,66.30
2019-04-01T07:07:26.751Z,65.50
2019-04-01T07:09:53.034Z,62.40
2019-04-01T07:12:19.376Z,64.00
2019-04-01T07:14:46.746Z,65.20
2019-04-01T07:17:13.121Z,63.50
2019-04-01T07:19:39.464Z,63.80
2019-04-01T07:22:05.738Z,63.20
2019-04-01T07:24:32.046Z,62.40
2019-04-01T07:26:58.363Z,61.40
2019-04-01T07:29:24.663Z,60.00
2019-04-01T07:31:50.982Z,59.90
2019-04-01T07:34:17.342Z,59.40
2019-04-01T07:36:43.963Z,59.30
2019-04-01T07:39:10.285Z,59.10
2019-04-01T07:41:36.603Z,58.80
2019-04-01T07:44:03.004Z,58.40
2019-04-01T07:46:29.278Z,58.00
2019-04-01T07:48:55.607Z,56.60
2019-04-01T07:51:21.893Z,55.40
2019-04-01T07:53:48.198Z,54.80
2019-04-01T07:56:14.618Z,55.20
2019-04-01T07:58:47.526Z,55.90
2019-04-01T08:01:14.470Z,53.90
2019-04-01T08:03:42.074Z,56.00
2019-04-01T08:06:08.573Z,56.70
2019-04-01T08:08:34.886Z,56.50
2019-04-01T08:11:01.191Z,56.00
2019-04-01T08:13:27.474Z,57.00
2019-04-01T08:15:54.827Z,52.00
2019-04-01T08:18:21.126Z,50.00
2019-04-01T08:20:53.509Z,55.30
2019-04-01T08:23:19.811Z,55.70
2019-04-01T08:25:47.902Z,53.00
2019-04-01T08:28:14.233Z,51.50
2019-04-01T08:30:40.536Z,49.70
2019-04-01T08:33:06.865Z,50.70
2019-04-01T08:35:33.171Z,51.60
2019-04-01T08:37:59.442Z,53.70
2019-04-01T08:40:25.801Z,52.90
2019-04-01T08:42:52.101Z,54.50
2019-04-01T08:45:18.379Z,53.40
2019-04-01T08:47:44.718Z,54.20
2019-04-01T08:50:11.123Z,56.80
2019-04-01T08:52:37.408Z,54.30
2019-04-01T08:55:05.283Z,52.60
2019-04-01T08:57:31.680Z,53.80
2019-04-01T08:59:58.207Z,54.70
2019-04-01T09:02:24.527Z,53.30
2019-04-01T09:04:50.906Z,52.70
2019-04-01T09:07:17.200Z,53.50
2019-04-01T09:09:43.506Z,52.00
2019-04-01T09:12:09.871Z,51.30
2019-04-01T09:14:36.165Z,49.20
2019-04-01T09:17:02.513Z,48.50
2019-04-01T09:19:28.805Z,51.50
2019-04-01T09:21:55.080Z,53.50
2019-04-01T09:24:21.385Z,55.00
2019-04-01T09:26:47.812Z,53.50
2019-04-01T09:29:14.100Z,53.50
2019-04-01T09:31:40.450Z,53.00
2019-04-01T09:34:06.742Z,53.20
2019-04-01T09:36:32.994Z,53.20
2019-04-01T09:38:59.400Z,53.80
2019-04-01T09:41:25.824Z,54.30
2019-04-01T09:43:52.086Z,52.90
2019-04-01T09:46:18.367Z,51.20
2019-04-01T09:48:50.698Z,53.20
2019-04-01T09:51:17.004Z,52.10
2019-04-01T09:53:46.308Z,53.30
2019-04-01T09:56:13.347Z,54.30
2019-04-01T09:58:39.880Z,55.40
2019-04-01T10:01:06.251Z,54.50
2019-04-01T10:03:32.627Z,55.40
2019-04-01T10:05:58.970Z,56.20
2019-04-01T10:08:25.362Z,56.70
2019-04-01T10:10:51.945Z,56.90
2019-04-01T10:13:18.564Z,56.80
2019-04-01T10:15:44.914Z,57.70
2019-04-01T10:18:11.339Z,56.50
2019-04-01T10:20:37.621Z,58.20
2019-04-01T10:23:04.058Z,55.50
2019-04-01T10:25:30.498Z,57.10
2019-04-01T10:28:04.688Z,54.90
2019-04-01T10:30:31.164Z,56.70
2019-04-01T10:33:03.285Z,56.20
2019-04-01T10:35:32.037Z,55.70
2019-04-01T10:38:04.437Z,55.90
2019-04-01T10:40:37.481Z,55.30
2019-04-01T10:43:05.922Z,54.90
2019-04-01T10:45:32.178Z,54.60
2019-04-01T10:47:59.931Z,54.80
2019-04-01T10:50:37.365Z,54.70
2019-04-01T10:53:04.233Z,54.40
2019-04-01T10:55:36.994Z,53.30
2019-04-01T10:58:03.540Z,53.10
2019-04-01T11:00:37.328Z,53.80
2019-04-01T11:03:06.036Z,54.20
2019-04-01T11:05:33.059Z,53.70
2019-04-01T11:08:02.052Z,55.10
2019-04-01T11:10:28.625Z,54.20
2019-04-01T11:12:55.602Z,54.20
2019-04-01T11:15:22.257Z,52.40
2019-04-01T11:17:54.335Z,52.90
2019-04-01T11:20:29.076Z,51.90
2019-04-01T11:22:55.916Z,52.10
2019-04-01T11:25:23.518Z,53.10
2019-04-01T11:27:51.404Z,53.30
2019-04-01T11:30:19.575Z,52.20
2019-04-01T11:32:46.759Z,51.90
2019-04-01T11:35:20.204Z,50.60
2019-04-01T11:37:47.372Z,52.20
2019-04-01T11:40:14.907Z,52.20
2019-04-01T11:42:42.460Z,51.60
2019-04-01T11:45:11.087Z,52.70
2019-04-01T11:47:38.752Z,50.30
2019-04-01T11:50:06.650Z,50.80
2019-04-01T11:52:34.195Z,50.80
2019-04-01T11:55:00.532Z,50.90
2019-04-01T11:57:32.128Z,49.50
2019-04-01T11:59:58.806Z,49.90
2019-04-01T12:02:25.491Z,49.40
2019-04-01T12:04:52.605Z,49.20
2019-04-01T12:07:20.703Z,48.90
2019-04-01T12:09:47.465Z,49.90
2019-04-01T12:12:23.406Z,48.20
2019-04-01T12:14:49.768Z,48.60
2019-04-01T12:17:16.836Z,48.60
2019-04-01T12:19:43.627Z,48.70
2019-04-01T12:22:11.182Z,48.80
2019-04-01T12:24:37.930Z,49.00
2019-04-01T12:27:04.303Z,49.00
2019-04-01T12:29:55.791Z,50.00
2019-04-01T12:32:25.719Z,49.10
2019-04-01T12:34:55.332Z,48.90
2019-04-01T12:37:30.084Z,49.80
2019-04-01T12:40:18.158Z,48.30
2019-04-01T12:42:58.589Z,48.40
2019-04-01T12:45:34.335Z,49.90
2019-04-01T12:48:05.975Z,48.10
2019-04-01T12:50:35.692Z,47.10
2019-04-01T12:53:01.982Z,48.70
2019-04-01T12:55:43.274Z,47.00
2019-04-01T12:58:11.914Z,48.20
2019-04-01T13:00:38.327Z,46.10
2019-04-01T13:03:04.660Z,46.70
2019-04-01T13:05:34.505Z,46.40
2019-04-01T13:08:00.982Z,46.70
2019-04-01T13:10:27.520Z,47.60
2019-04-01T13:12:54.295Z,47.20
2019-04-01T13:15:21.107Z,44.80
2019-04-01T13:17:47.555Z,45.70
2019-04-01T13:20:14.483Z,45.40
2019-04-01T13:22:45.415Z,45.90
2019-04-01T13:25:11.751Z,45.70
2019-04-01T13:27:48.083Z,45.60
2019-04-01T13:30:24.229Z,43.20
2019-04-01T13:32:54.315Z,43.00
2019-04-01T13:35:24.099Z,43.80
2019-04-01T13:37:50.694Z,43.70
2019-04-01T13:40:31.490Z,43.20
2019-04-01T13:42:58.503Z,43.70
2019-04-01T13:45:31.152Z,42.80
2019-04-01T13:47:55.270Z,43.60
2019-04-01T13:50:27.385Z,43.80
2019-04-01T13:52:56.711Z,44.70
2019-04-01T13:55:38.294Z,43.30
2019-04-01T13:58:05.837Z,43.40
2019-04-01T14:00:40.193Z,42.50
2019-04-01T14:03:11.059Z,43.10
2019-04-01T14:05:37.377Z,44.20
2019-04-01T14:08:09.846Z,44.00
2019-04-01T14:10:36.577Z,44.00
2019-04-01T14:13:12.535Z,43.90
2019-04-01T14:15:47.136Z,43.10
2019-04-01T14:18:18.221Z,43.10
2019-04-01T14:20:46.973Z,44.10
2019-04-01T14:23:27.951Z,42.90
2019-04-01T14:25:58.491Z,43.10
2019-04-01T14:28:27.974Z,43.30
2019-04-01T14:30:54.660Z,44.30
2019-04-01T14:33:21.102Z,44.10
2019-04-01T14:35:51.163Z,43.90
2019-04-01T14:38:21.540Z,44.30
2019-04-01T14:40:52.844Z,43.20
2019-04-01T14:46:17.643Z,43.50
2019-04-01T14:48:49.825Z,43.80
2019-04-01T14:51:17.244Z,42.30
2019-04-01T14:54:27.941Z,42.50
2019-04-01T14:57:02.398Z,43.40
2019-04-01T14:59:35.554Z,42.70
2019-04-01T15:02:20.288Z,41.50
2019-04-01T15:04:46.671Z,40.90
2019-04-01T15:07:14.386Z,41.60
2019-04-01T15:09:47.892Z,41.60
2019-04-01T15:13:25.388Z,41.70
2019-04-01T15:16:01.201Z,42.70
2019-04-01T15:18:28.197Z,42.80
2019-04-01T15:23:45.471Z,41.50
2019-04-01T15:26:12.581Z,42.40
2019-04-01T15:28:39.056Z,42.10
2019-04-01T15:31:30.453Z,42.70
2019-04-01T15:33:57.248Z,42.60
2019-04-01T15:36:24.206Z,43.00
2019-04-01T15:39:00.098Z,42.70
2019-04-01T15:41:40.523Z,41.50
2019-04-01T15:44:09.539Z,42.50
2019-04-01T15:46:36.891Z,43.70
2019-04-01T15:49:03.822Z,42.20
2019-04-01T15:51:42.931Z,42.10
2019-04-01T15:54:12.631Z,42.80
2019-04-01T15:56:41.868Z,43.70
2019-04-01T15:59:21.057Z,42.10
2019-04-01T16:01:58.215Z,43.00
2019-04-01T16:04:37.167Z,41.70
2019-04-01T16:07:22.218Z,42.40
2019-04-01T16:09:54.431Z,43.10
2019-04-01T16:12:21.082Z,42.80
2019-04-01T16:14:56.521Z,43.40
2019-04-01T16:17:28.977Z,43.30
2019-04-01T16:19:58.687Z,43.40
2019-04-01T16:22:28.531Z,42.50
2019-04-01T16:28:33.526Z,43.30
2019-04-01T16:31:19.234Z,43.10
2019-04-01T16:34:23.832Z,44.10
2019-04-01T16:37:23.738Z,42.70
2019-04-01T16:39:59.968Z,44.90
2019-04-01T16:42:55.622Z,43.50
2019-04-01T16:45:35.314Z,43.60
2019-04-01T16:48:38.299Z,43.60
2019-04-01T16:51:18.234Z,43.80
2019-04-01T16:53:51.122Z,44.40
2019-04-01T16:56:32.527Z,44.10
2019-04-01T16:59:04.605Z,44.30
2019-04-01T17:01:48.237Z,44.90
2019-04-01T17:04:21.949Z,44.60
2019-04-01T17:07:04.492Z,44.70
2019-04-01T17:09:53.415Z,44.60
2019-04-01T17:13:10.494Z,45.20
2019-04-01T17:15:42.247Z,45.30
2019-04-01T17:18:18.280Z,46.50
2019-04-01T17:20:47.734Z,46.20
2019-04-01T17:24:20.209Z,46.30
2019-04-01T17:27:09.341Z,46.30
2019-04-01T17:30:10.109Z,46.30
2019-04-01T17:32:40.196Z,47.00
2019-04-01T17:35:34.237Z,47.40
2019-04-01T17:38:09.019Z,47.40
2019-04-01T17:40:51.060Z,47.50
2019-04-01T17:43:23.020Z,48.10
2019-04-01T17:45:48.281Z,48.90
2019-04-01T17:48:14.539Z,49.10
2019-04-01T17:50:56.083Z,49.50
2019-04-01T17:53:45.299Z,50.10
2019-04-01T17:56:11.581Z,50.50
2019-04-01T17:58:49.537Z,51.00
2019-04-01T18:01:28.822Z,51.20
2019-04-01T18:04:02.311Z,51.20
2019-04-01T18:06:32.464Z,51.80
2019-04-01T18:09:21.415Z,52.20
2019-04-01T18:11:54.322Z,52.10
2019-04-01T18:14:28.373Z,52.50
2019-04-01T18:16:54.908Z,52.50
2019-04-01T18:19:29.912Z,52.70
2019-04-01T18:22:10.110Z,53.00
2019-04-01T18:24:40.895Z,53.50
2019-04-01T18:27:29.207Z,54.00
2019-04-01T18:30:09.639Z,54.20
2019-04-01T18:32:57.905Z,54.30
2019-04-01T18:35:25.388Z,55.30
2019-04-01T18:37:55.293Z,55.70
2019-04-01T18:40:33.253Z,55.70
2019-04-01T18:43:04.385Z,56.30
2019-04-01T18:45:37.255Z,56.90
2019-04-01T18:48:16.143Z,57.10
2019-04-01T18:50:55.474Z,57.60
2019-04-01T18:53:29.882Z,57.90
2019-04-01T18:56:05.795Z,59.00
2019-04-01T18:58:35.352Z,59.00
2019-04-01T19:01:05.448Z,58.90
2019-04-01T19:03:36.187Z,58.70
2019-04-01T19:06:14.732Z,58.60
2019-04-01T19:09:08.443Z,58.50
2019-04-01T19:11:26.034Z,58.90
2019-04-01T19:14:01.512Z,59.30
2019-04-01T19:16:40.440Z,59.60
2019-04-01T19:19:10.997Z,59.90
2019-04-01T19:21:47.205Z,60.20
2019-04-01T19:24:16.779Z,60.50
2019-04-01T19:26:45.385Z,61.30
2019-04-01T19:29:16.033Z,61.50
2019-04-01T19:31:45.778Z,62.50
2019-04-01T19:34:37.323Z,63.50
2019-04-01T19:37:07.427Z,61.90
2019-04-01T19:39:34.843Z,62.00
2019-04-01T19:42:01.090Z,61.30
2019-04-01T19:44:30.388Z,61.70
2019-04-01T19:47:01.541Z,62.00
2019-04-01T19:49:29.262Z,62.30
2019-04-01T19:51:57.255Z,62.00
2019-04-01T19:54:34.303Z,61.70
2019-04-01T19:57:02.446Z,61.40
2019-04-01T19:59:40.639Z,61.50
2019-04-01T20:02:11.352Z,62.30
2019-04-01T20:04:44.206Z,63.20
2019-04-01T20:07:10.467Z,62.20
2019-04-01T20:09:40.058Z,62.60
2019-04-01T20:12:07.382Z,62.90
2019-04-01T20:14:37.877Z,63.20
2019-04-01T20:28:52.969Z,64.80
2019-04-01T20:31:40.775Z,64.60
2019-04-01T20:38:05.092Z,66.10
2019-04-01T20:40:53.310Z,64.90
2019-04-01T20:43:31.016Z,65.10
2019-04-01T20:49:02.143Z,64.80
2019-04-01T20:51:47.284Z,65.30
2019-04-01T20:57:13.929Z,65.60
2019-04-01T20:59:47.671Z,64.40
2019-04-01T21:02:23.994Z,63.70
2019-04-01T21:04:59.816Z,64.50
2019-04-01T21:11:00.324Z,63.30
2019-04-01T21:13:56.063Z,63.20
2019-04-01T21:16:36.467Z,63.60
2019-04-01T21:19:12.294Z,64.40
2019-04-01T21:21:44.265Z,63.90
2019-04-01T21:24:27.530Z,64.40
2019-04-01T21:27:02.045Z,64.40
2019-04-01T21:29:39.296Z,64.80
2019-04-01T21:32:09.269Z,65.20
2019-04-01T21:34:36.669Z,65.60
2019-04-01T21:37:07.994Z,65.70
2019-04-01T21:39:46.678Z,65.90
2019-04-01T21:42:34.401Z,66.30
2019-04-01T21:45:25.080Z,66.00
2019-04-01T21:50:50.911Z,65.90
2019-04-01T21:53:21.967Z,65.80
2019-04-01T21:56:08.053Z,65.60
2019-04-01T21:58:43.914Z,65.10
2019-04-01T22:01:33.875Z,65.30
2019-04-01T22:04:11.987Z,65.50
2019-04-01T22:25:07.043Z,68.00
2019-04-01T22:39:35.256Z,68.40
2019-04-01T22:48:20.222Z,68.70
2019-04-01T22:50:58.877Z,67.50
2019-04-01T22:53:54.879Z,67.10
2019-04-01T22:56:26.234Z,68.40
2019-04-01T22:59:14.414Z,69.10
2019-04-01T23:01:49.806Z,69.70
2019-04-01T23:07:28.764Z,71.70
2019-04-01T23:32:27.929Z,72.50
2019-04-01T23:35:08.288Z,72.10
2019-04-01T23:38:07.753Z,72.00
2019-04-01T23:46:23.370Z,72.30
2019-04-01T23:58:10.400Z,73.90
